Aviation Digital Data Service (ADDS)

Output produced by METARs form (0652 UTC 17 January 2017)
found at http://aviationweather.gov/adds/metars/
 
KPNE 170531Z 1706/1806 22003KT P6SM VCSH OVC035 
     FM171100 12004KT P6SM -RA OVC020 
     FM171500 12004KT 5SM -RA BR OVC009 
     FM172200 14005KT 2SM -DZ BR OVC003